createdAt,value
2017-10-20T00:02:19.434Z,8.70
2017-10-20T00:04:47.377Z,8.60
2017-10-20T00:07:15.082Z,8.60
2017-10-20T00:09:42.700Z,7.73
2017-10-20T00:12:10.290Z,7.80
2017-10-20T00:14:37.893Z,9.00
2017-10-20T00:17:06.388Z,7.70
2017-10-20T00:19:33.994Z,8.43
2017-10-20T00:22:01.582Z,7.67
2017-10-20T00:24:29.166Z,8.40
2017-10-20T00:26:57.518Z,7.93
2017-10-20T00:29:25.114Z,8.03
2017-10-20T00:31:55.094Z,8.10
2017-10-20T00:34:22.666Z,6.90
2017-10-20T00:36:51.017Z,8.20
2017-10-20T00:39:18.635Z,7.50
2017-10-20T00:41:46.211Z,7.63
2017-10-20T00:44:13.792Z,7.63
2017-10-20T00:46:41.366Z,8.80
2017-10-20T00:49:08.956Z,7.40
2017-10-20T00:51:37.318Z,7.53
2017-10-20T00:54:04.933Z,7.60
2017-10-20T00:56:32.500Z,7.90
2017-10-20T00:59:00.272Z,8.07
2017-10-20T01:01:27.916Z,7.83
2017-10-20T01:03:55.491Z,8.40
2017-10-20T01:06:23.942Z,7.10
2017-10-20T01:08:52.311Z,7.53
2017-10-20T01:11:20.653Z,8.00
2017-10-20T01:13:48.272Z,9.10
2017-10-20T01:16:16.579Z,7.60
2017-10-20T01:18:44.159Z,7.00
2017-10-20T01:21:11.798Z,7.30
2017-10-20T01:23:39.354Z,7.23
2017-10-20T01:26:06.949Z,6.97
2017-10-20T01:28:34.548Z,7.23
2017-10-20T01:31:02.917Z,8.00
2017-10-20T01:33:31.258Z,7.33
2017-10-20T01:35:58.829Z,7.70
2017-10-20T01:38:26.778Z,7.40
2017-10-20T01:40:54.369Z,7.47
2017-10-20T01:43:21.932Z,7.57
2017-10-20T01:45:49.529Z,8.20
2017-10-20T01:48:17.112Z,7.80
2017-10-20T01:50:44.698Z,7.70
2017-10-20T01:53:12.319Z,7.00
2017-10-20T01:55:39.874Z,7.57
2017-10-20T01:58:07.770Z,8.53
2017-10-20T02:00:35.634Z,7.80
2017-10-20T02:03:03.700Z,7.40
2017-10-20T02:05:31.284Z,8.13
2017-10-20T02:07:58.867Z,7.30
2017-10-20T02:10:27.401Z,6.90
2017-10-20T02:12:54.975Z,6.53
2017-10-20T02:15:23.351Z,7.93
2017-10-20T02:17:50.928Z,7.17
2017-10-20T02:20:18.551Z,7.30
2017-10-20T02:22:46.123Z,6.90
2017-10-20T02:25:13.702Z,7.23
2017-10-20T02:27:41.279Z,7.53
2017-10-20T02:30:08.896Z,6.50
2017-10-20T02:32:38.407Z,6.33
2017-10-20T02:35:21.237Z,7.03
2017-10-20T02:37:48.824Z,7.27
2017-10-20T02:40:16.418Z,6.63
2017-10-20T02:42:44.343Z,7.30
2017-10-20T02:45:11.962Z,6.80
2017-10-20T02:47:41.170Z,7.40
2017-10-20T02:50:08.747Z,6.57
2017-10-20T02:52:36.362Z,7.00
2017-10-20T02:55:04.804Z,7.17
2017-10-20T02:57:32.386Z,6.93
2017-10-20T03:00:00.447Z,6.77
2017-10-20T03:02:28.075Z,6.67
2017-10-20T03:04:56.364Z,6.17
2017-10-20T03:07:23.942Z,6.53
2017-10-20T03:09:51.548Z,7.30
2017-10-20T03:12:19.990Z,6.47
2017-10-20T03:14:47.569Z,7.17
2017-10-20T03:17:15.155Z,6.80
2017-10-20T03:19:43.486Z,6.90
2017-10-20T03:22:11.069Z,6.03
2017-10-20T03:24:38.666Z,6.40
2017-10-20T03:27:07.008Z,6.33
2017-10-20T03:29:34.924Z,7.30
2017-10-20T03:32:03.251Z,7.53
2017-10-20T03:34:31.015Z,6.50
2017-10-20T03:36:58.582Z,6.00
2017-10-20T03:39:26.198Z,6.67
2017-10-20T03:41:53.760Z,6.50
2017-10-20T03:44:21.594Z,6.10
2017-10-20T03:46:49.144Z,6.23
2017-10-20T03:49:16.758Z,5.57
2017-10-20T03:51:44.325Z,6.13
2017-10-20T03:54:11.898Z,6.70
2017-10-20T03:56:39.521Z,7.40
2017-10-20T03:59:07.116Z,7.80
2017-10-20T04:01:34.683Z,7.67
2017-10-20T04:04:02.428Z,6.80
2017-10-20T04:06:30.014Z,6.67
2017-10-20T04:08:57.610Z,7.43
2017-10-20T04:11:26.315Z,7.23
2017-10-20T04:13:54.859Z,6.83
2017-10-20T04:16:23.070Z,7.27
2017-10-20T04:18:51.420Z,7.50
2017-10-20T04:21:19.228Z,7.83
2017-10-20T04:23:47.085Z,6.70
2017-10-20T04:26:14.706Z,7.07
2017-10-20T04:28:42.300Z,7.60
2017-10-20T04:31:10.679Z,7.30
2017-10-20T04:33:38.294Z,7.77
2017-10-20T04:36:05.870Z,6.40
2017-10-20T04:38:33.504Z,6.97
2017-10-20T04:41:02.224Z,7.90
2017-10-20T04:43:29.845Z,7.30
2017-10-20T04:45:57.429Z,7.43
2017-10-20T04:48:25.166Z,6.47
2017-10-20T04:50:52.927Z,8.47
2017-10-20T04:53:21.006Z,7.57
2017-10-20T04:55:48.606Z,8.77
2017-10-20T04:58:16.205Z,9.43
2017-10-20T05:00:44.566Z,10.67
2017-10-20T05:03:12.157Z,9.80
2017-10-20T05:05:39.809Z,13.30
2017-10-20T05:21:07.409Z,8.43
2017-10-20T05:23:34.995Z,7.57
2017-10-20T05:26:02.586Z,8.23
2017-10-20T05:28:30.943Z,7.80
2017-10-20T05:30:59.945Z,8.27
2017-10-20T05:33:29.123Z,7.23
2017-10-20T05:35:56.699Z,8.00
2017-10-20T05:38:24.258Z,8.90
2017-10-20T05:40:51.928Z,8.50
2017-10-20T05:43:20.608Z,7.43
2017-10-20T05:45:48.706Z,8.30
2017-10-20T05:48:16.314Z,9.70
2017-10-20T05:50:43.918Z,8.50
2017-10-20T05:53:12.278Z,9.10
2017-10-20T05:55:40.038Z,8.57
2017-10-20T05:58:07.602Z,11.73
2017-10-20T06:00:35.207Z,9.60
2017-10-20T06:03:03.158Z,8.83
2017-10-20T06:05:32.161Z,9.80
2017-10-20T06:08:00.479Z,9.50
2017-10-20T06:10:28.100Z,10.60
2017-10-20T06:12:56.539Z,10.00
2017-10-20T06:15:24.127Z,10.70
2017-10-20T06:17:52.866Z,9.20
2017-10-20T06:20:20.451Z,9.60
2017-10-20T06:22:48.057Z,9.97
2017-10-20T06:25:16.443Z,10.80
2017-10-20T06:27:44.062Z,9.70
2017-10-20T06:30:11.634Z,10.03
2017-10-20T06:32:39.255Z,10.30
2017-10-20T06:35:06.855Z,9.63
2017-10-20T06:37:34.452Z,10.50
2017-10-20T06:40:02.055Z,10.13
2017-10-20T06:42:32.405Z,10.53
2017-10-20T06:45:00.754Z,10.40
2017-10-20T06:47:28.323Z,11.33
2017-10-20T06:49:56.799Z,10.10
2017-10-20T06:52:24.575Z,10.40
2017-10-20T06:54:52.174Z,10.73
2017-10-20T06:57:20.518Z,10.47
2017-10-20T06:59:48.856Z,11.10
2017-10-20T07:02:16.585Z,10.43
2017-10-20T07:04:44.949Z,11.40
2017-10-20T07:07:12.543Z,10.40
2017-10-20T07:09:40.197Z,10.60
2017-10-20T07:12:08.629Z,10.47
2017-10-20T07:14:36.210Z,10.90
2017-10-20T07:17:04.031Z,11.07
2017-10-20T07:19:34.098Z,10.27
2017-10-20T07:22:01.671Z,10.90
2017-10-20T07:24:29.263Z,10.90
2017-10-20T07:26:56.991Z,10.70
2017-10-20T07:29:24.595Z,10.70
2017-10-20T07:31:52.136Z,9.90
2017-10-20T07:34:20.493Z,11.50
2017-10-20T07:36:48.327Z,10.40
2017-10-20T07:39:15.882Z,10.43
2017-10-20T07:41:43.494Z,11.00
2017-10-20T07:44:11.851Z,10.60
2017-10-20T07:46:39.683Z,10.40
2017-10-20T07:49:07.246Z,11.37
2017-10-20T07:51:34.902Z,11.33
2017-10-20T07:54:02.502Z,10.13
2017-10-20T07:56:30.159Z,11.53
2017-10-20T07:58:57.743Z,11.00
2017-10-20T08:01:26.310Z,11.80
2017-10-20T08:03:54.550Z,9.73
2017-10-20T08:06:22.182Z,10.10
2017-10-20T08:08:50.574Z,10.10
2017-10-20T08:11:18.945Z,10.77
2017-10-20T08:13:47.304Z,10.03
2017-10-20T08:16:14.893Z,9.77
2017-10-20T08:18:42.531Z,8.50
2017-10-20T08:21:10.909Z,8.53
2017-10-20T08:23:38.820Z,9.20
2017-10-20T08:26:06.385Z,8.27
2017-10-20T08:28:33.979Z,8.70
2017-10-20T08:31:01.598Z,9.17
2017-10-20T08:33:29.205Z,8.87
2017-10-20T08:35:56.806Z,9.90
2017-10-20T08:38:24.455Z,8.27
2017-10-20T08:40:52.844Z,8.73
2017-10-20T08:43:21.217Z,7.80
2017-10-20T08:45:49.594Z,9.43
2017-10-20T08:48:17.988Z,9.40
2017-10-20T08:50:46.338Z,8.37
2017-10-20T08:53:13.966Z,8.73
2017-10-20T08:55:42.327Z,9.73
2017-10-20T08:58:09.952Z,10.10
2017-10-20T09:00:39.084Z,9.87
2017-10-20T09:03:06.836Z,8.80
2017-10-20T09:05:34.410Z,9.17
2017-10-20T09:08:02.002Z,7.73
2017-10-20T09:10:29.597Z,11.13
2017-10-20T09:12:58.449Z,7.50
2017-10-20T09:15:26.069Z,8.60
2017-10-20T09:17:53.665Z,8.77
2017-10-20T09:20:21.278Z,8.50
2017-10-20T09:22:49.635Z,8.20
2017-10-20T09:25:17.854Z,10.20
2017-10-20T09:27:45.425Z,9.10
2017-10-20T09:30:13.010Z,10.20
2017-10-20T09:32:40.631Z,9.40
2017-10-20T09:35:09.079Z,8.33
2017-10-20T09:37:36.676Z,8.07
2017-10-20T09:40:05.146Z,9.63
2017-10-20T09:42:33.519Z,10.27
2017-10-20T09:45:01.884Z,9.80
2017-10-20T09:47:29.491Z,7.83
2017-10-20T09:49:57.068Z,9.47
2017-10-20T09:52:24.659Z,8.30
2017-10-20T09:54:52.292Z,7.37
2017-10-20T09:57:19.891Z,8.57
2017-10-20T09:59:47.482Z,9.00
2017-10-20T10:02:15.370Z,7.67
2017-10-20T10:04:42.962Z,9.63
2017-10-20T10:07:10.526Z,8.57
2017-10-20T10:09:38.133Z,4.90
2017-10-20T10:12:06.473Z,3.73
2017-10-20T10:14:34.046Z,3.70
2017-10-20T10:17:01.731Z,3.83
2017-10-20T10:19:29.306Z,3.57
2017-10-20T10:21:56.908Z,4.43
2017-10-20T10:24:24.524Z,5.10
2017-10-20T10:26:52.118Z,5.03
2017-10-20T10:29:20.473Z,4.70
2017-10-20T10:31:48.418Z,3.80
2017-10-20T10:34:17.479Z,4.43
2017-10-20T10:36:45.051Z,4.83
2017-10-20T10:39:12.618Z,4.40
2017-10-20T10:41:40.210Z,5.43
2017-10-20T10:44:08.568Z,3.93
2017-10-20T10:46:36.173Z,4.37
2017-10-20T10:49:04.083Z,3.97
2017-10-20T10:51:31.672Z,3.33
2017-10-20T10:54:00.011Z,4.83
2017-10-20T10:56:28.334Z,4.03
2017-10-20T10:58:56.783Z,3.33
2017-10-20T11:01:24.369Z,3.20
2017-10-20T11:03:52.726Z,3.67
2017-10-20T11:06:32.327Z,3.50
2017-10-20T11:09:11.658Z,3.03
2017-10-20T11:11:51.182Z,3.43
2017-10-20T11:14:19.489Z,3.17
2017-10-20T11:16:47.110Z,4.27
2017-10-20T11:19:15.450Z,3.13
2017-10-20T11:21:43.030Z,4.10
2017-10-20T11:24:10.610Z,3.47
2017-10-20T11:26:38.946Z,4.07
2017-10-20T11:29:06.642Z,3.77
2017-10-20T11:31:34.730Z,3.87
2017-10-20T11:34:03.129Z,3.90
2017-10-20T11:36:30.736Z,4.60
2017-10-20T11:38:58.319Z,4.53
2017-10-20T11:41:25.906Z,3.13
2017-10-20T11:43:53.458Z,4.23
2017-10-20T11:46:21.060Z,4.03
2017-10-20T11:48:48.644Z,4.53
2017-10-20T11:51:17.311Z,3.77
2017-10-20T11:53:44.903Z,4.27
2017-10-20T11:56:12.558Z,4.10
2017-10-20T11:58:40.148Z,6.30
2017-10-20T12:01:08.524Z,4.00
2017-10-20T12:03:36.867Z,3.73
2017-10-20T12:06:04.438Z,3.90
2017-10-20T12:08:32.042Z,3.30
2017-10-20T12:10:59.645Z,4.30
2017-10-20T12:13:28.176Z,4.00
2017-10-20T12:15:56.531Z,5.97
2017-10-20T12:18:24.162Z,3.33
2017-10-20T12:20:51.820Z,4.10
2017-10-20T12:23:19.416Z,2.77
2017-10-20T12:25:47.027Z,2.83
2017-10-20T12:28:14.607Z,3.97
2017-10-20T12:30:42.210Z,3.00
2017-10-20T12:33:10.626Z,2.60
2017-10-20T12:35:38.220Z,2.70
2017-10-20T12:38:05.803Z,2.90
2017-10-20T12:40:33.434Z,4.60
2017-10-20T12:43:01.025Z,2.47
2017-10-20T12:45:28.644Z,3.40
2017-10-20T12:47:56.411Z,3.70
2017-10-20T12:50:24.097Z,2.90
2017-10-20T12:52:51.714Z,3.00
2017-10-20T12:55:19.303Z,2.63
2017-10-20T12:57:47.866Z,2.87
2017-10-20T13:00:15.442Z,3.80
2017-10-20T13:02:43.054Z,3.47
2017-10-20T13:05:10.655Z,3.57
2017-10-20T13:07:38.355Z,2.83
2017-10-20T13:10:05.940Z,2.97
2017-10-20T13:12:33.543Z,4.67
2017-10-20T13:15:01.419Z,2.80
2017-10-20T13:17:28.999Z,2.10
2017-10-20T13:19:56.654Z,2.20
2017-10-20T13:22:24.271Z,3.00
2017-10-20T13:24:52.630Z,2.00
2017-10-20T13:27:20.299Z,2.53
2017-10-20T13:29:47.894Z,2.30
2017-10-20T13:32:15.467Z,2.50
2017-10-20T13:34:43.082Z,3.20
2017-10-20T13:37:10.650Z,2.60
2017-10-20T13:39:39.029Z,3.20
2017-10-20T13:42:07.383Z,2.70
2017-10-20T13:44:34.960Z,3.17
2017-10-20T13:47:02.623Z,2.13
2017-10-20T13:49:30.310Z,3.07
2017-10-20T13:51:58.720Z,2.07
2017-10-20T13:54:26.376Z,2.77
2017-10-20T13:56:53.963Z,2.37
2017-10-20T13:59:21.787Z,4.00
2017-10-20T14:01:49.395Z,5.90
2017-10-20T14:04:16.978Z,2.83
2017-10-20T14:06:44.575Z,4.10
2017-10-20T14:09:12.148Z,4.20
2017-10-20T14:11:40.927Z,2.67
2017-10-20T14:14:08.508Z,4.43
2017-10-20T14:16:36.127Z,3.27
2017-10-20T14:19:04.487Z,4.13
2017-10-20T14:21:32.432Z,2.70
2017-10-20T14:24:00.047Z,3.07
2017-10-20T14:26:28.383Z,4.03
2017-10-20T14:28:56.000Z,3.30
2017-10-20T14:31:23.606Z,2.13
2017-10-20T14:33:51.208Z,2.53
2017-10-20T14:36:19.635Z,2.40
2017-10-20T14:38:47.206Z,2.37
2017-10-20T14:41:14.795Z,2.60
2017-10-20T14:43:43.169Z,2.40
2017-10-20T14:46:10.766Z,2.40
2017-10-20T14:48:38.365Z,2.97
2017-10-20T14:51:05.966Z,2.60
2017-10-20T14:53:34.298Z,2.40
2017-10-20T14:56:01.893Z,3.43
2017-10-20T14:58:29.486Z,2.00
2017-10-20T15:00:57.071Z,3.43
2017-10-20T15:03:24.690Z,2.13
2017-10-20T15:05:53.042Z,4.63
2017-10-20T15:08:21.174Z,2.70
2017-10-20T15:10:48.787Z,3.27
2017-10-20T15:13:16.361Z,2.13
2017-10-20T15:15:44.705Z,2.43
2017-10-20T15:18:12.310Z,4.47
2017-10-20T15:20:40.687Z,4.33
2017-10-20T15:23:09.027Z,3.33
2017-10-20T15:25:36.671Z,4.57
2017-10-20T15:28:04.244Z,6.13
2017-10-20T15:30:31.846Z,5.23
2017-10-20T15:32:59.768Z,2.67
2017-10-20T15:35:27.453Z,2.50
2017-10-20T15:37:55.051Z,3.13
2017-10-20T15:40:23.427Z,3.17
2017-10-20T15:42:51.794Z,3.37
2017-10-20T15:45:19.392Z,4.20
2017-10-20T15:47:47.019Z,3.30
2017-10-20T15:50:14.627Z,2.53
2017-10-20T15:52:42.198Z,4.20
2017-10-20T15:55:10.651Z,10.53
2017-10-20T15:57:38.486Z,2.80
2017-10-20T16:00:06.228Z,4.93
2017-10-20T16:02:33.799Z,3.00
2017-10-20T16:05:01.734Z,3.13
2017-10-20T16:07:29.310Z,3.33
2017-10-20T16:09:57.268Z,3.90
2017-10-20T16:12:24.823Z,4.10
2017-10-20T16:14:52.435Z,3.63
2017-10-20T16:17:20.025Z,2.80
2017-10-20T16:19:47.874Z,2.70
2017-10-20T16:22:15.471Z,3.77
2017-10-20T16:24:43.047Z,4.63
2017-10-20T16:27:11.008Z,3.77
2017-10-20T16:29:38.582Z,3.20
2017-10-20T16:32:06.153Z,4.47
2017-10-20T16:34:33.767Z,3.57
2017-10-20T16:37:01.378Z,3.60
2017-10-20T16:39:28.962Z,3.90
2017-10-20T16:41:56.595Z,3.30
2017-10-20T16:44:24.997Z,2.93
2017-10-20T16:46:52.574Z,3.77
2017-10-20T16:49:20.254Z,3.43
2017-10-20T16:51:47.937Z,3.17
2017-10-20T16:54:15.508Z,2.80
2017-10-20T16:56:43.099Z,4.30
2017-10-20T16:59:11.000Z,2.90
2017-10-20T17:01:39.350Z,3.00
2017-10-20T17:04:06.933Z,2.50
2017-10-20T17:06:35.296Z,2.87
2017-10-20T17:09:02.890Z,3.10
2017-10-20T17:11:30.508Z,3.03
2017-10-20T17:13:58.115Z,3.90
2017-10-20T17:16:25.712Z,3.53
2017-10-20T17:18:53.292Z,3.77
2017-10-20T17:21:20.896Z,7.17
2017-10-20T17:23:49.266Z,4.23
2017-10-20T17:26:17.639Z,3.77
2017-10-20T17:28:45.995Z,3.70
2017-10-20T17:31:13.586Z,2.90
2017-10-20T17:33:41.915Z,3.07
2017-10-20T17:36:09.510Z,2.50
2017-10-20T17:38:37.109Z,3.10
2017-10-20T17:41:04.710Z,2.77
2017-10-20T17:43:32.306Z,3.07
2017-10-20T17:45:59.952Z,3.97
2017-10-20T17:48:27.523Z,2.43
2017-10-20T17:50:55.130Z,3.30
2017-10-20T17:53:22.788Z,2.60
2017-10-20T17:55:50.391Z,2.83
2017-10-20T17:58:17.971Z,2.87
2017-10-20T18:00:46.399Z,4.37
2017-10-20T18:03:14.033Z,3.57
2017-10-20T18:05:42.847Z,2.50
2017-10-20T18:08:10.828Z,4.40
2017-10-20T18:10:38.436Z,2.53
2017-10-20T18:13:06.071Z,3.60
2017-10-20T18:15:33.652Z,4.17
2017-10-20T18:18:01.235Z,3.63
2017-10-20T18:20:29.605Z,3.03
2017-10-20T18:22:58.035Z,4.27
2017-10-20T18:25:25.611Z,2.80
2017-10-20T18:27:53.210Z,3.63
2017-10-20T18:30:21.563Z,3.07
2017-10-20T18:32:49.635Z,4.10
2017-10-20T18:35:17.651Z,3.33
2017-10-20T18:37:46.178Z,2.80
2017-10-20T18:40:13.770Z,3.33
2017-10-20T18:42:43.734Z,3.40
2017-10-20T18:45:11.447Z,3.77
2017-10-20T18:47:39.091Z,4.27
2017-10-20T18:50:06.933Z,4.13
2017-10-20T18:52:34.515Z,3.93
2017-10-20T18:55:02.233Z,3.43
2017-10-20T18:57:29.849Z,3.80
2017-10-20T18:59:57.433Z,3.27
2017-10-20T19:02:25.080Z,3.73
2017-10-20T19:04:52.698Z,4.47
2017-10-20T19:07:20.309Z,3.10
2017-10-20T19:09:47.942Z,4.20
2017-10-20T19:12:15.564Z,3.10
2017-10-20T19:14:43.902Z,4.00
2017-10-20T19:17:11.502Z,3.70
2017-10-20T19:19:39.114Z,4.07
2017-10-20T19:22:06.757Z,4.67
2017-10-20T19:24:35.164Z,5.30
2017-10-20T19:27:02.813Z,4.03
2017-10-20T19:29:30.411Z,5.13
2017-10-20T19:31:58.788Z,3.20
2017-10-20T19:34:26.434Z,3.20
2017-10-20T19:36:54.046Z,3.90
2017-10-20T19:39:21.694Z,3.23
2017-10-20T19:41:50.050Z,4.40
2017-10-20T19:44:18.430Z,4.47
2017-10-20T19:46:46.021Z,3.67
2017-10-20T19:49:13.585Z,3.80
2017-10-20T19:51:41.199Z,4.90
2017-10-20T19:54:08.832Z,5.27
2017-10-20T19:56:36.716Z,4.57
2017-10-20T19:59:04.309Z,4.17
2017-10-20T20:01:31.939Z,4.63
2017-10-20T20:03:59.522Z,4.87
2017-10-20T20:06:27.135Z,4.60
2017-10-20T20:08:54.716Z,4.10
2017-10-20T20:11:22.321Z,4.37
2017-10-20T20:13:50.715Z,3.63
2017-10-20T20:16:18.324Z,6.23
2017-10-20T20:18:45.942Z,4.03
2017-10-20T20:21:13.579Z,3.57
2017-10-20T20:23:41.157Z,3.67
2017-10-20T20:26:09.626Z,3.40
2017-10-20T20:28:38.035Z,2.60
2017-10-20T20:31:05.599Z,3.40
2017-10-20T20:33:34.092Z,3.27
2017-10-20T20:36:01.659Z,3.60
2017-10-20T20:38:30.084Z,5.07
2017-10-20T20:40:57.680Z,2.63
2017-10-20T20:43:25.261Z,3.07
2017-10-20T20:45:53.323Z,4.60
2017-10-20T20:48:20.901Z,3.47
2017-10-20T20:50:48.510Z,3.10
2017-10-20T20:53:16.116Z,2.80
2017-10-20T20:55:43.830Z,2.83
2017-10-20T20:58:11.446Z,4.97
2017-10-20T21:00:39.027Z,3.17
2017-10-20T21:03:06.621Z,2.83
2017-10-20T21:05:35.048Z,3.83
2017-10-20T21:08:02.668Z,3.50
2017-10-20T21:10:31.006Z,3.70
2017-10-20T21:12:58.678Z,3.93
2017-10-20T21:15:26.285Z,3.33
2017-10-20T21:17:53.895Z,3.27
2017-10-20T21:20:21.470Z,3.10
2017-10-20T21:22:49.065Z,2.77
2017-10-20T21:25:16.630Z,3.07
2017-10-20T21:27:44.230Z,2.87
2017-10-20T21:30:12.552Z,3.73
2017-10-20T21:32:40.898Z,3.90
2017-10-20T21:35:08.489Z,4.20
2017-10-20T21:37:36.815Z,3.30
2017-10-20T21:40:05.203Z,3.33
2017-10-20T21:42:32.793Z,3.00
2017-10-20T21:45:00.370Z,3.47
2017-10-20T21:47:28.212Z,3.03
2017-10-20T21:49:55.848Z,3.30
2017-10-20T21:52:23.395Z,3.27
2017-10-20T21:54:50.975Z,3.00
2017-10-20T21:57:18.730Z,2.97
2017-10-20T21:59:46.299Z,3.37
2017-10-20T22:02:13.914Z,3.20
2017-10-20T22:04:42.289Z,3.27
2017-10-20T22:07:10.675Z,3.67
2017-10-20T22:09:39.006Z,3.23
2017-10-20T22:12:06.561Z,3.60
2017-10-20T22:14:34.159Z,3.03
2017-10-20T22:17:01.772Z,3.50
2017-10-20T22:19:29.375Z,3.53
2017-10-20T22:21:56.967Z,3.30
2017-10-20T22:24:25.299Z,3.97
2017-10-20T22:26:52.889Z,3.63
2017-10-20T22:29:21.235Z,3.20
2017-10-20T22:31:49.600Z,3.83
2017-10-20T22:34:17.417Z,3.90
2017-10-20T22:36:45.035Z,3.47
2017-10-20T22:39:12.608Z,3.23
2017-10-20T22:41:40.216Z,4.07
2017-10-20T22:44:08.590Z,3.63
2017-10-20T22:46:36.939Z,4.10
2017-10-20T22:49:04.606Z,3.77
2017-10-20T22:51:32.191Z,4.73
2017-10-20T22:54:00.590Z,3.20
2017-10-20T22:56:28.942Z,3.60
2017-10-20T22:58:57.383Z,3.90
2017-10-20T23:01:24.983Z,3.57
2017-10-20T23:03:53.319Z,3.60
2017-10-20T23:06:20.899Z,4.30
2017-10-20T23:08:48.596Z,4.70
2017-10-20T23:11:16.927Z,4.30
2017-10-20T23:13:44.519Z,4.47
2017-10-20T23:16:12.307Z,3.60
2017-10-20T23:18:40.708Z,4.50
2017-10-20T23:21:08.309Z,3.93
2017-10-20T23:23:35.878Z,3.47
2017-10-20T23:26:03.502Z,5.97
2017-10-20T23:28:31.099Z,3.37
2017-10-20T23:30:58.682Z,4.00
2017-10-20T23:33:27.135Z,4.00
2017-10-20T23:35:54.723Z,3.30
2017-10-20T23:38:23.090Z,3.43
2017-10-20T23:40:50.663Z,3.53
2017-10-20T23:43:19.031Z,3.50
2017-10-20T23:45:46.619Z,3.00
2017-10-20T23:48:14.973Z,5.03
2017-10-20T23:50:42.558Z,3.97
2017-10-20T23:53:10.899Z,3.87
2017-10-20T23:55:38.498Z,3.60
2017-10-20T23:58:07.038Z,3.67
